createdAt,value
2023-04-30T00:04:46.154Z,9.6
2023-04-30T00:11:06.214Z,9.44
2023-04-30T00:17:29.292Z,9.34
2023-04-30T00:23:49.329Z,9.22
2023-04-30T00:30:12.217Z,9.14
2023-04-30T00:36:32.227Z,9.06
2023-04-30T00:42:55.150Z,8.91
2023-04-30T00:49:15.244Z,8.79
2023-04-30T00:55:38.205Z,8.69
2023-04-30T01:01:58.174Z,8.61
2023-04-30T01:08:21.258Z,8.53
2023-04-30T01:14:41.281Z,8.45
2023-04-30T01:21:04.189Z,8.4
2023-04-30T01:27:24.183Z,8.32
2023-04-30T01:33:47.206Z,8.23
2023-04-30T01:40:07.184Z,8.16
2023-04-30T01:46:30.282Z,8.11
2023-04-30T01:52:50.249Z,8.06
2023-04-30T01:59:13.217Z,8.02
2023-04-30T02:05:33.198Z,7.93
2023-04-30T02:11:56.213Z,7.82
2023-04-30T02:18:16.247Z,7.78
2023-04-30T02:24:39.177Z,7.62
2023-04-30T02:30:59.206Z,7.54
2023-04-30T02:37:22.285Z,7.46
2023-04-30T02:43:42.177Z,7.42
2023-04-30T02:50:05.319Z,7.44
2023-04-30T02:56:25.188Z,7.45
2023-04-30T03:02:48.277Z,7.37
2023-04-30T03:09:08.221Z,7.24
2023-04-30T03:15:31.173Z,7.15
2023-04-30T03:31:21.095Z,7.04
2023-04-30T03:37:41.137Z,6.94
2023-04-30T03:44:04.251Z,6.87
2023-04-30T03:50:24.230Z,6.81
2023-04-30T03:56:47.232Z,6.72
2023-04-30T04:03:07.189Z,6.68
2023-04-30T04:09:30.257Z,6.67
2023-04-30T04:15:50.526Z,6.67
2023-04-30T04:22:13.182Z,6.67
2023-04-30T04:28:33.233Z,6.6
2023-04-30T04:34:56.220Z,6.61
2023-04-30T04:41:16.179Z,6.66
2023-04-30T04:47:39.286Z,6.61
2023-04-30T04:53:59.174Z,6.66
2023-04-30T05:00:22.250Z,6.75
2023-04-30T05:06:42.252Z,6.88
2023-04-30T05:13:05.198Z,6.99
2023-04-30T05:19:25.253Z,7.08
2023-04-30T05:25:48.261Z,7.1
2023-04-30T05:32:08.385Z,7.06
2023-04-30T05:38:31.222Z,7.07
2023-04-30T05:44:51.261Z,7.17
2023-04-30T05:51:14.281Z,7.3
2023-04-30T05:57:34.196Z,7.43
2023-04-30T06:03:57.228Z,7.56
2023-04-30T06:10:17.226Z,7.72
2023-04-30T06:16:40.267Z,7.86
2023-04-30T06:23:00.262Z,7.93
2023-04-30T06:29:23.191Z,8.04
2023-04-30T06:35:43.201Z,8.09
2023-04-30T06:42:06.245Z,8.25
2023-04-30T06:48:26.176Z,8.38
2023-04-30T06:54:49.185Z,8.58
2023-04-30T07:01:09.206Z,8.77
2023-04-30T07:07:32.168Z,8.98
2023-04-30T07:13:52.166Z,9.17
2023-04-30T07:20:15.192Z,9.39
2023-04-30T07:26:35.237Z,9.73
2023-04-30T07:32:58.320Z,10.11
2023-04-30T07:39:19.216Z,10.46
2023-04-30T07:45:42.294Z,10.81
2023-04-30T07:52:02.177Z,11.19
2023-04-30T07:58:25.265Z,11.59
2023-04-30T08:04:45.177Z,12
2023-04-30T08:11:08.186Z,12.36
2023-04-30T08:17:28.208Z,12.73
2023-04-30T08:23:51.181Z,13.08
2023-04-30T08:30:11.181Z,13.42
2023-04-30T08:46:39.115Z,14.48
2023-04-30T08:52:59.186Z,14.92
2023-04-30T08:59:22.177Z,15.23
2023-04-30T09:05:42.182Z,15.44
2023-04-30T09:12:05.163Z,15.68
2023-04-30T09:18:25.169Z,16.07
2023-04-30T09:24:48.174Z,16.46
2023-04-30T09:31:08.210Z,16.79
2023-04-30T09:37:31.249Z,17.18
2023-04-30T09:43:51.179Z,17.59
2023-04-30T09:50:14.176Z,17.95
2023-04-30T09:56:34.143Z,18.31
2023-04-30T10:02:57.277Z,18.61
2023-04-30T10:09:17.162Z,18.94
2023-04-30T10:15:40.160Z,19.18
2023-04-30T10:22:00.198Z,19.32
2023-04-30T10:28:23.168Z,19.43
2023-04-30T10:34:43.184Z,19.27
2023-04-30T10:41:06.224Z,19.18
2023-04-30T10:47:26.162Z,19.32
2023-04-30T10:53:49.184Z,19.5
2023-04-30T11:00:09.179Z,19.73
2023-04-30T11:06:32.192Z,19.63
2023-04-30T11:12:52.183Z,19.59
2023-04-30T11:19:15.187Z,20.24
2023-04-30T11:25:35.200Z,20.78
2023-04-30T11:31:58.246Z,21.11
2023-04-30T11:38:18.226Z,21.39
2023-04-30T11:44:41.185Z,21.29
2023-04-30T11:51:01.157Z,21.56
2023-04-30T11:57:24.288Z,21.53
2023-04-30T12:03:44.276Z,21.6
2023-04-30T12:10:07.202Z,22.26
2023-04-30T12:16:27.213Z,22.99
2023-04-30T12:22:50.166Z,23.31
2023-04-30T12:29:10.803Z,23.26
2023-04-30T12:35:33.185Z,23.04
2023-04-30T12:41:53.182Z,23.35
2023-04-30T12:48:16.233Z,23.98
2023-04-30T12:54:36.258Z,24.28
2023-04-30T13:00:59.179Z,23.94
2023-04-30T13:07:19.157Z,23.03
2023-04-30T13:13:42.204Z,22.45
2023-04-30T13:20:02.158Z,23.12
2023-04-30T13:26:25.156Z,24.09
2023-04-30T13:32:45.233Z,24.12
2023-04-30T13:39:08.156Z,23.82
2023-04-30T13:45:28.176Z,23.21
2023-04-30T13:51:51.191Z,22.48
2023-04-30T13:58:11.173Z,21.97
2023-04-30T14:04:34.179Z,22.04
2023-04-30T14:10:54.178Z,22.5
2023-04-30T14:17:17.197Z,23.36
2023-04-30T14:34:01.157Z,23.95
2023-04-30T14:40:24.171Z,23.94
2023-04-30T14:46:44.176Z,23.41
2023-04-30T14:53:07.176Z,23.26
2023-04-30T14:59:27.153Z,23.05
2023-04-30T15:05:50.166Z,23.04
2023-04-30T15:12:10.282Z,22.92
2023-04-30T15:18:33.216Z,22.45
2023-04-30T15:24:53.148Z,21.99
2023-04-30T15:31:16.221Z,21.44
2023-04-30T15:37:36.159Z,21.23
2023-04-30T15:43:59.185Z,21.36
2023-04-30T15:50:19.235Z,21.91
2023-04-30T15:56:42.153Z,22.43
2023-04-30T16:03:02.249Z,22.29
2023-04-30T16:09:25.402Z,21.96
2023-04-30T16:15:45.238Z,21.63
2023-04-30T16:22:08.246Z,21.6
2023-04-30T16:28:28.200Z,21.56
2023-04-30T16:34:51.181Z,21.31
2023-04-30T16:41:11.150Z,21.4
2023-04-30T16:47:34.479Z,21.1
2023-04-30T16:53:54.456Z,20.78
2023-04-30T17:00:17.168Z,20.49
2023-04-30T17:06:37.229Z,20.28
2023-04-30T17:13:00.145Z,20.13
2023-04-30T17:19:20.280Z,19.96
2023-04-30T17:25:43.195Z,20.02
2023-04-30T17:32:03.151Z,20.36
2023-04-30T17:38:26.174Z,20.42
2023-04-30T17:44:46.223Z,20.09
2023-04-30T17:51:09.176Z,19.67
2023-04-30T17:57:29.158Z,19.26
2023-04-30T18:03:52.378Z,18.9
2023-04-30T18:10:12.272Z,18.66
2023-04-30T18:16:35.178Z,18.4
2023-04-30T18:22:55.182Z,18.15
2023-04-30T18:29:18.176Z,17.84
2023-04-30T18:35:38.163Z,17.51
2023-04-30T18:42:01.210Z,17.18
2023-04-30T18:48:21.158Z,16.88
2023-04-30T18:54:44.158Z,16.56
2023-04-30T19:01:04.208Z,16.24
2023-04-30T19:07:27.159Z,15.92
2023-04-30T19:13:47.182Z,15.63
2023-04-30T19:20:10.188Z,15.32
2023-04-30T19:26:30.175Z,15.02
2023-04-30T19:32:53.217Z,14.78
2023-04-30T19:39:13.321Z,14.52
2023-04-30T19:45:36.168Z,14.27
2023-04-30T19:51:56.196Z,14.02
2023-04-30T20:08:24.106Z,13.61
2023-04-30T20:14:44.159Z,13.45
2023-04-30T20:21:07.195Z,13.33
2023-04-30T20:27:27.195Z,13.2
2023-04-30T20:33:50.170Z,13.06
2023-04-30T20:40:10.196Z,12.96
2023-04-30T20:46:33.213Z,12.87
2023-04-30T20:52:53.186Z,12.76
2023-04-30T20:59:16.174Z,12.64
2023-04-30T21:05:36.213Z,12.57
2023-04-30T21:11:59.204Z,12.51
2023-04-30T21:18:19.168Z,12.52
2023-04-30T21:24:42.211Z,12.51
2023-04-30T21:31:02.245Z,12.46
2023-04-30T21:37:25.182Z,12.37
2023-04-30T21:43:45.249Z,12.24
2023-04-30T21:50:08.208Z,12.17
2023-04-30T21:56:28.167Z,12.11
2023-04-30T22:20:45.174Z,12.03
2023-04-30T22:27:05.192Z,12
2023-04-30T22:33:28.211Z,11.95
2023-04-30T22:39:48.220Z,11.88
2023-04-30T22:46:11.218Z,11.82
2023-04-30T22:52:31.192Z,11.75
2023-04-30T22:58:54.176Z,11.65
2023-04-30T23:05:14.170Z,11.58
2023-04-30T23:11:37.169Z,11.55
2023-04-30T23:17:57.212Z,11.58
2023-04-30T23:24:20.138Z,11.6
2023-04-30T23:30:40.250Z,11.62
2023-04-30T23:37:03.200Z,11.64
2023-04-30T23:43:23.204Z,11.64
2023-04-30T23:49:46.271Z,11.64
2023-04-30T23:56:06.203Z,11.6
